Time;durP1;ratioP1;P1;durP2;ratioP2;P2;SDS_P1;SDS_P2;PMS_P1;PMS_P2;Temp;Humidity;BMP_temperature;BMP_pressure;BME280_temperature;BME280_humidity;BME280_pressure;Samples;Min_cycle;Max_cycle;Signal;HPM_P1;HPM_P2
2022/01/03 00:01:20;;;;;;;5.15;1.85;;;15.50;72.00;;;;;;2604328;52;20954;-75
2022/01/03 00:03:47;;;;;;;5.15;1.65;;;15.50;72.00;;;;;;2370384;53;20950;-74
2022/01/03 00:06:14;;;;;;;7.78;1.87;;;15.50;72.30;;;;;;2370083;53;20942;-75
2022/01/03 00:08:42;;;;;;;5.12;1.70;;;15.50;72.10;;;;;;2370265;53;21225;-75
2022/01/03 00:11:12;;;;;;;5.80;1.52;;;15.50;72.10;;;;;;2370248;53;21537;-75
2022/01/03 00:13:43;;;;;;;6.62;1.52;;;15.50;71.20;;;;;;2350499;54;20930;-74
2022/01/03 00:16:09;;;;;;;4.90;1.42;;;15.50;71.70;;;;;;2373563;53;21007;-75
2022/01/03 00:18:36;;;;;;;5.72;1.37;;;15.50;71.50;;;;;;2435854;52;21033;-75
2022/01/03 00:21:03;;;;;;;3.83;1.45;;;15.50;71.90;;;;;;2370288;53;21425;-74
2022/01/03 00:23:30;;;;;;;7.47;1.73;;;15.60;71.60;;;;;;2350287;53;20964;-74
2022/01/03 00:26:00;;;;;;;5.37;1.60;;;15.50;71.50;;;;;;2370653;53;21556;-74
2022/01/03 00:28:34;;;;;;;3.42;1.30;;;15.60;71.50;;;;;;2370372;53;20973;-75
2022/01/03 00:31:02;;;;;;;7.35;1.62;;;15.60;71.40;;;;;;2370582;53;20941;-75
2022/01/03 00:33:30;;;;;;;6.68;1.75;;;15.60;72.30;;;;;;2350414;53;21010;-75
2022/01/03 00:36:01;;;;;;;4.37;1.58;;;15.60;71.80;;;;;;2370480;53;20926;-76
2022/01/03 00:38:28;;;;;;;6.78;1.60;;;15.60;72.00;;;;;;2369931;53;20950;-75
2022/01/03 00:40:55;;;;;;;5.50;1.40;;;15.60;72.10;;;;;;2365945;53;21035;-75
2022/01/03 00:43:21;;;;;;;5.25;1.52;;;15.60;71.80;;;;;;2354577;53;21743;-75
2022/01/03 00:45:54;;;;;;;6.00;1.45;;;15.60;72.00;;;;;;2369048;53;20903;-75
2022/01/03 00:48:21;;;;;;;6.53;1.83;;;15.60;71.50;;;;;;2349965;53;21375;-75
2022/01/03 00:50:47;;;;;;;5.18;1.50;;;15.60;71.80;;;;;;2351552;53;21022;-75
2022/01/03 00:53:14;;;;;;;7.60;1.70;;;15.60;71.50;;;;;;2353098;53;21054;-75
2022/01/03 00:56:04;;;;;;;5.10;1.83;;;15.60;71.40;;;;;;2370557;53;20922;-75
2022/01/03 00:58:37;;;;;;;6.60;1.92;;;15.60;69.90;;;;;;2360132;53;20952;-74
2022/01/03 01:01:07;;;;;;;4.65;1.40;;;15.60;71.20;;;;;;2352947;53;21051;-74
2022/01/03 01:03:36;;;;;;;6.07;1.73;;;15.60;71.20;;;;;;2366852;53;21005;-75
2022/01/03 01:06:04;;;;;;;4.57;1.62;;;15.60;71.50;;;;;;2384959;52;21011;-75
2022/01/03 01:08:31;;;;;;;5.87;1.75;;;15.60;71.20;;;;;;2436896;53;20930;-74
2022/01/03 01:10:57;;;;;;;5.90;1.62;;;15.50;71.20;;;;;;2370677;53;20969;-74
2022/01/03 01:13:23;;;;;;;3.95;1.52;;;15.50;71.40;;;;;;2333051;54;20911;-75
2022/01/03 01:15:49;;;;;;;6.15;1.87;;;15.50;71.60;;;;;;2362263;53;20942;-75
2022/01/03 01:18:16;;;;;;;5.05;1.62;;;15.50;72.00;;;;;;2370213;53;21487;-75
2022/01/03 01:20:43;;;;;;;5.25;1.45;;;15.50;71.50;;;;;;2370015;53;20973;-75
2022/01/03 01:23:09;;;;;;;4.95;1.70;;;15.50;71.70;;;;;;2370523;53;20945;-75
2022/01/03 01:28:47;;;;;;;5.93;1.92;;;15.40;71.20;;;;;;2429659;52;20969;-75
2022/01/03 01:31:16;;;;;;;6.00;1.87;;;15.40;71.40;;;;;;2369111;53;20945;-75
2022/01/03 01:33:42;;;;;;;6.15;1.75;;;15.40;71.50;;;;;;2370087;53;21005;-75
2022/01/03 01:36:10;;;;;;;5.12;1.60;;;15.40;71.70;;;;;;2619380;52;20986;-75
2022/01/03 01:38:38;;;;;;;5.78;1.65;;;15.40;71.80;;;;;;2350518;53;20938;-75
2022/01/03 01:41:06;;;;;;;4.85;1.85;;;15.30;71.70;;;;;;2523651;52;20969;-75
2022/01/03 01:43:41;;;;;;;4.12;1.55;;;15.30;71.80;;;;;;2344848;53;20953;-75
2022/01/03 01:46:17;;;;;;;4.97;1.50;;;15.30;71.60;;;;;;2356010;53;20958;-75
2022/01/03 01:48:45;;;;;;;4.87;1.50;;;15.30;71.70;;;;;;2364650;53;20925;-74
2022/01/03 01:51:13;;;;;;;5.28;1.48;;;15.20;72.00;;;;;;2369127;53;20977;-75
2022/01/03 01:53:55;;;;;;;5.20;1.62;;;15.30;71.90;;;;;;2364347;53;21756;-75
2022/01/03 01:56:23;;;;;;;5.62;1.40;;;15.20;71.00;;;;;;2581352;52;21863;-75
2022/01/03 02:00:12;;;;;;;6.97;1.62;;;15.20;71.60;;;;;;2329229;54;21011;-74
2022/01/03 02:04:16;;;;;;;6.82;2.00;;;15.20;70.50;;;;;;2325086;53;20969;-75
2022/01/03 02:06:47;;;;;;;5.20;1.40;;;15.20;70.50;;;;;;2342274;54;21951;-74
2022/01/03 02:09:38;;;;;;;5.12;1.80;;;15.20;71.60;;;;;;2320924;54;21105;-75
2022/01/03 02:12:05;;;;;;;7.00;1.70;;;15.10;70.90;;;;;;2345188;54;20936;-74
2022/01/03 02:14:36;;;;;;;4.10;1.48;;;15.10;71.90;;;;;;2317726;54;20912;-75
2022/01/03 02:17:03;;;;;;;4.80;1.58;;;15.10;71.90;;;;;;2579029;52;21001;-75
2022/01/03 02:19:29;;;;;;;3.72;1.10;;;15.10;72.20;;;;;;2557823;52;21417;-74
2022/01/03 02:21:57;;;;;;;5.05;1.33;;;15.00;72.10;;;;;;2320483;54;20920;-74
2022/01/03 02:24:23;;;;;;;3.45;1.10;;;15.00;72.30;;;;;;2424921;53;21754;-75
2022/01/03 02:26:49;;;;;;;6.40;1.48;;;15.10;72.40;;;;;;2357130;53;20901;-75
2022/01/03 02:29:16;;;;;;;7.18;1.90;;;15.10;72.50;;;;;;2317212;54;21446;-75
2022/01/03 02:31:42;;;;;;;4.78;1.73;;;15.00;72.10;;;;;;2324074;54;21032;-74
2022/01/03 02:34:08;;;;;;;5.60;1.67;;;15.00;72.30;;;;;;2367839;53;20930;-74
2022/01/03 02:38:59;;;;;;;4.35;1.10;;;15.00;72.40;;;;;;2376110;52;22585;-76
2022/01/03 02:41:27;;;;;;;5.28;1.77;;;15.00;72.40;;;;;;2328882;53;20991;-76
2022/01/03 02:43:53;;;;;;;4.40;1.37;;;15.00;72.20;;;;;;2329339;53;21020;-76
2022/01/03 02:46:19;;;;;;;7.60;1.40;;;15.00;72.60;;;;;;2329012;53;20999;-76
2022/01/03 02:48:46;;;;;;;5.03;1.27;;;15.00;72.60;;;;;;2328596;53;20917;-75
2022/01/03 02:51:12;;;;;;;7.12;1.60;;;15.00;72.60;;;;;;2309059;53;20996;-76
2022/01/03 02:53:39;;;;;;;5.87;1.55;;;15.00;72.70;;;;;;2342657;54;21034;-76
2022/01/03 02:56:06;;;;;;;5.22;1.30;;;15.00;72.60;;;;;;2350951;53;21000;-76
2022/01/03 02:58:32;;;;;;;5.03;1.23;;;15.00;72.60;;;;;;2307973;53;21220;-76
2022/01/03 03:00:59;;;;;;;7.00;1.40;;;15.00;72.60;;;;;;2355894;54;20959;-75
2022/01/03 03:03:26;;;;;;;4.07;1.10;;;15.00;72.70;;;;;;2310264;54;20957;-76
2022/01/03 03:05:52;;;;;;;6.82;1.58;;;15.00;72.50;;;;;;2347019;53;20915;-76
2022/01/03 03:08:18;;;;;;;5.12;1.33;;;15.00;72.60;;;;;;2361489;54;20942;-76
2022/01/03 03:10:45;;;;;;;5.87;1.67;;;15.00;72.60;;;;;;2362263;53;21466;-76
2022/01/03 03:13:11;;;;;;;4.55;1.45;;;15.00;72.80;;;;;;2363716;53;20949;-76
2022/01/03 03:15:40;;;;;;;6.97;1.33;;;15.00;72.80;;;;;;2415600;53;20934;-76
2022/01/03 03:18:09;;;;;;;9.82;1.37;;;15.00;72.70;;;;;;2477352;53;21289;-76
2022/01/03 03:20:35;;;;;;;4.25;1.20;;;15.00;72.70;;;;;;2350424;53;20997;-76
2022/01/03 03:23:02;;;;;;;5.82;1.40;;;15.00;72.80;;;;;;2609641;52;20985;-76
2022/01/03 03:25:34;;;;;;;6.35;1.60;;;15.00;72.80;;;;;;2600534;52;20951;-76
2022/01/03 03:28:01;;;;;;;;;;;15.00;72.20;;;;;;2357350;54;21821;-76
2022/01/03 03:30:35;;;;;;;4.18;1.02;;;15.00;71.10;;;;;;2350275;53;20082;-76
2022/01/03 03:33:07;;;;;;;4.07;1.30;;;15.00;72.30;;;;;;2574719;53;20949;-76
2022/01/03 03:35:34;;;;;;;5.03;1.10;;;15.00;72.30;;;;;;2332503;54;20981;-76
2022/01/03 03:38:01;;;;;;;5.47;1.10;;;15.00;72.30;;;;;;2329491;54;20953;-76
2022/01/03 03:40:28;;;;;;;5.18;1.30;;;15.00;72.50;;;;;;2327874;54;20996;-76
2022/01/03 03:42:55;;;;;;;5.15;1.35;;;15.00;72.50;;;;;;2359302;53;21036;-75
2022/01/03 03:45:21;;;;;;;3.45;1.30;;;15.00;72.50;;;;;;2363359;53;20933;-76
2022/01/03 03:47:51;;;;;;;5.50;1.20;;;15.00;72.60;;;;;;2371549;54;21008;-76
2022/01/03 03:50:18;;;;;;;7.15;1.30;;;15.00;72.60;;;;;;2364572;54;21818;-76
2022/01/03 03:52:45;;;;;;;7.12;1.40;;;15.00;72.20;;;;;;2366381;53;21029;-75
2022/01/03 03:55:11;;;;;;;3.72;1.17;;;15.00;72.20;;;;;;2351364;53;20911;-76
2022/01/03 03:57:38;;;;;;;5.50;1.30;;;15.00;72.30;;;;;;2355094;53;21890;-76
2022/01/03 04:00:10;;;;;;;6.37;1.50;;;15.00;72.20;;;;;;2370430;54;20997;-76
2022/01/03 04:02:36;;;;;;;4.87;1.30;;;15.00;71.60;;;;;;2371766;54;20958;-76
2022/01/03 04:05:03;;;;;;;4.55;1.50;;;15.00;72.20;;;;;;2370858;54;21458;-76
2022/01/03 04:07:29;;;;;;;7.55;1.45;;;15.00;72.10;;;;;;2460991;52;20942;-76
2022/01/03 04:09:55;;;;;;;6.55;1.40;;;15.00;71.90;;;;;;2357671;53;20957;-76
2022/01/03 04:12:24;;;;;;;6.50;1.20;;;15.00;71.90;;;;;;2362947;53;21025;-76
2022/01/03 04:14:51;;;;;;;4.62;1.20;;;15.00;72.20;;;;;;2369607;53;21543;-75
2022/01/03 04:17:17;;;;;;;4.15;1.62;;;14.90;71.70;;;;;;2469408;52;20914;-76
2022/01/03 04:19:44;;;;;;;4.05;1.27;;;15.00;71.90;;;;;;2601346;52;20969;-76
2022/01/03 04:22:12;;;;;;;6.95;1.17;;;14.90;71.70;;;;;;2352778;53;20996;-76
2022/01/03 04:24:39;;;;;;;5.30;1.30;;;14.90;71.60;;;;;;2369290;52;20956;-76
2022/01/03 04:27:07;;;;;;;6.28;1.48;;;14.90;71.70;;;;;;2359316;53;21236;-76
2022/01/03 04:29:34;;;;;;;7.22;1.60;;;14.90;71.50;;;;;;2351047;54;20978;-76
2022/01/03 04:32:02;;;;;;;4.70;1.40;;;14.90;71.40;;;;;;2365135;54;20966;-76
2022/01/03 04:34:29;;;;;;;6.82;1.50;;;14.80;71.60;;;;;;2364064;54;20933;-75
2022/01/03 04:37:22;;;;;;;4.65;1.10;;;14.80;71.20;;;;;;2367659;52;21429;-76
2022/01/03 04:39:49;;;;;;;6.57;1.23;;;14.80;70.10;;;;;;2354146;53;21012;-76
2022/01/03 04:42:15;;;;;;;4.75;1.25;;;14.80;71.30;;;;;;2357223;53;20916;-76
2022/01/03 04:44:41;;;;;;;4.80;1.20;;;14.80;71.50;;;;;;2346122;53;21491;-76
2022/01/03 04:47:08;;;;;;;5.12;1.20;;;14.70;71.60;;;;;;2623108;52;20946;-76
2022/01/03 04:49:34;;;;;;;4.25;0.82;;;14.70;71.70;;;;;;2343597;54;21000;-76
2022/01/03 04:52:03;;;;;;;5.95;1.35;;;14.60;71.60;;;;;;2357622;53;21009;-76
2022/01/03 04:54:29;;;;;;;6.62;1.37;;;14.70;71.50;;;;;;2368944;54;21069;-76
2022/01/03 04:56:59;;;;;;;4.60;1.20;;;14.60;71.50;;;;;;2416126;53;21054;-76
2022/01/03 04:59:25;;;;;;;3.55;0.90;;;14.60;71.60;;;;;;2364971;53;21346;-76
2022/01/03 05:01:52;;;;;;;2.95;0.77;;;14.60;71.70;;;;;;2356135;53;21474;-76
2022/01/03 05:04:18;;;;;;;4.60;1.00;;;14.50;71.70;;;;;;2372143;54;21790;-76
2022/01/03 05:06:45;;;;;;;4.45;1.17;;;14.50;71.70;;;;;;2348067;53;20925;-76
2022/01/03 05:09:11;;;;;;;5.62;1.40;;;14.50;71.90;;;;;;2370043;54;20914;-76
2022/01/03 05:11:38;;;;;;;5.45;1.12;;;14.40;71.80;;;;;;2370389;54;20913;-76
2022/01/03 05:14:08;;;;;;;5.55;1.70;;;14.50;71.80;;;;;;2477674;52;20942;-76
2022/01/03 05:16:37;;;;;;;4.97;1.30;;;14.40;71.60;;;;;;2369723;54;20977;-76
2022/01/03 05:19:03;;;;;;;8.45;1.65;;;14.40;71.60;;;;;;2370243;54;20902;-76
2022/01/03 05:21:31;;;;;;;4.65;1.15;;;14.30;71.40;;;;;;2370098;54;20997;-76
2022/01/03 05:23:58;;;;;;;5.90;1.48;;;14.30;71.90;;;;;;2375728;52;21032;-75
2022/01/03 05:26:24;;;;;;;6.03;1.48;;;14.30;71.70;;;;;;2353924;53;21048;-76
2022/01/03 05:28:50;;;;;;;4.60;1.50;;;14.30;72.00;;;;;;2366558;54;20942;-76
2022/01/03 05:31:17;;;;;;;4.70;0.98;;;14.20;72.10;;;;;;2356305;53;20977;-76
2022/01/03 05:33:43;;;;;;;4.78;1.20;;;14.20;72.10;;;;;;2365246;53;21029;-76
2022/01/03 05:36:09;;;;;;;3.35;1.00;;;14.20;72.10;;;;;;2354809;52;21424;-76
2022/01/03 05:38:36;;;;;;;7.18;1.50;;;14.20;72.10;;;;;;2345815;53;21080;-76
2022/01/03 05:41:02;;;;;;;4.70;1.27;;;14.10;72.00;;;;;;2359207;53;20968;-76
2022/01/03 05:43:28;;;;;;;5.82;1.37;;;14.10;72.30;;;;;;2352680;53;21072;-75
2022/01/03 05:45:55;;;;;;;3.22;1.02;;;14.10;72.30;;;;;;2369814;53;20958;-75
2022/01/03 05:48:22;;;;;;;6.18;1.30;;;14.10;72.50;;;;;;2369974;54;20902;-76
2022/01/03 05:50:48;;;;;;;5.10;1.35;;;14.10;72.70;;;;;;2405605;52;21791;-76
2022/01/03 05:53:15;;;;;;;3.45;0.95;;;14.10;72.60;;;;;;2352836;53;20986;-76
2022/01/03 05:55:44;;;;;;;5.55;1.70;;;14.20;72.70;;;;;;2350444;52;20941;-75
2022/01/03 05:58:10;;;;;;;9.27;1.62;;;14.10;72.80;;;;;;2373470;53;20926;-76
2022/01/03 06:00:45;;;;;;;8.00;1.15;;;14.10;72.80;;;;;;2355292;53;20949;-76
2022/01/03 06:03:13;;;;;;;4.80;1.25;;;14.20;73.00;;;;;;2355106;53;21754;-75
2022/01/03 06:05:52;;;;;;;6.78;1.17;;;14.10;72.80;;;;;;2369433;53;21921;-76
2022/01/03 06:08:19;;;;;;;5.50;1.10;;;14.20;72.90;;;;;;2350221;54;20998;-76
2022/01/03 06:10:45;;;;;;;4.82;1.25;;;14.20;73.20;;;;;;2370201;53;21057;-76
2022/01/03 06:13:12;;;;;;;5.12;1.40;;;14.20;73.20;;;;;;2370235;53;21017;-76
2022/01/03 06:15:38;;;;;;;5.43;1.33;;;14.30;73.20;;;;;;2370564;54;21401;-76
2022/01/03 06:18:06;;;;;;;5.60;1.20;;;14.30;73.30;;;;;;2370439;54;21750;-76
2022/01/03 06:20:32;;;;;;;8.38;1.20;;;14.30;73.30;;;;;;2350019;53;21008;-76
2022/01/03 06:22:59;;;;;;;6.10;1.40;;;14.30;73.20;;;;;;2365364;53;21013;-76
2022/01/03 06:25:26;;;;;;;6.72;1.20;;;14.30;72.80;;;;;;2353567;53;20949;-76
2022/01/03 06:27:52;;;;;;;4.87;1.20;;;14.40;73.00;;;;;;2370411;53;21045;-75
2022/01/03 06:30:19;;;;;;;6.05;1.25;;;14.40;72.50;;;;;;2350606;54;20962;-76
2022/01/03 06:32:48;;;;;;;6.30;1.30;;;14.40;72.60;;;;;;2369482;54;21103;-75
2022/01/03 06:35:14;;;;;;;3.50;1.20;;;14.50;73.00;;;;;;2370296;54;21017;-75
2022/01/03 06:37:40;;;;;;;5.62;1.23;;;14.40;73.40;;;;;;2361706;53;21781;-76
2022/01/03 06:40:07;;;;;;;5.12;1.00;;;14.50;72.80;;;;;;2354498;53;21471;-76
2022/01/03 06:42:33;;;;;;;5.43;1.25;;;14.50;72.90;;;;;;2370137;54;21438;-76
2022/01/03 06:45:01;;;;;;;3.67;0.90;;;14.50;72.60;;;;;;2411124;52;21022;-75
2022/01/03 06:47:28;;;;;;;3.92;1.00;;;14.50;72.40;;;;;;2420977;52;20926;-76
2022/01/03 06:49:54;;;;;;;7.50;1.42;;;14.60;72.70;;;;;;2370921;53;20937;-76
2022/01/03 06:52:20;;;;;;;6.18;1.20;;;14.60;72.10;;;;;;2480830;52;20949;-76
2022/01/03 06:54:46;;;;;;;4.07;0.95;;;14.60;72.50;;;;;;2370923;54;21034;-75
2022/01/03 06:57:13;;;;;;;4.65;1.20;;;14.60;72.10;;;;;;2363794;53;21805;-76
2022/01/03 06:59:39;;;;;;;3.92;1.05;;;14.60;71.90;;;;;;2356862;53;21350;-76
2022/01/03 07:02:05;;;;;;;4.35;1.10;;;14.60;71.80;;;;;;2429264;53;20927;-76
2022/01/03 07:04:31;;;;;;;3.17;1.10;;;14.60;72.10;;;;;;2613925;52;21562;-76
2022/01/03 07:07:01;;;;;;;3.75;1.10;;;14.60;72.10;;;;;;2369922;54;21010;-76
2022/01/03 07:09:27;;;;;;;10.35;1.85;;;14.60;71.90;;;;;;2381449;52;20929;-76
2022/01/03 07:11:54;;;;;;;4.00;0.85;;;14.50;71.40;;;;;;2593142;52;21438;-76
2022/01/03 07:21:01;;;;;;;5.30;1.30;;;14.50;71.80;;;;;;2373982;54;21109;-76
2022/01/03 07:23:27;;;;;;;4.05;1.00;;;14.50;71.90;;;;;;2341209;54;20956;-76
2022/01/03 07:25:54;;;;;;;5.37;1.30;;;14.50;72.00;;;;;;2360780;53;20936;-76
2022/01/03 07:28:20;;;;;;;6.87;1.40;;;14.50;72.10;;;;;;2359091;53;21804;-76
2022/01/03 07:30:46;;;;;;;7.57;1.92;;;14.60;72.10;;;;;;2362093;53;20910;-75
2022/01/03 07:33:13;;;;;;;4.05;1.10;;;14.50;71.90;;;;;;2554834;52;21944;-75
2022/01/03 07:35:39;;;;;;;5.75;1.40;;;14.50;71.90;;;;;;2403869;52;21541;-76
2022/01/03 07:38:05;;;;;;;5.18;1.05;;;14.50;72.20;;;;;;2349700;53;20956;-76
2022/01/03 07:40:33;;;;;;;3.28;1.10;;;14.50;71.90;;;;;;2455955;53;20977;-76
2022/01/03 07:46:26;;;;;;;4.15;1.05;;;14.50;71.30;;;;;;2357641;53;21515;-76
2022/01/03 07:48:53;;;;;;;4.70;1.40;;;14.50;72.20;;;;;;2422264;52;20909;-75
2022/01/03 07:51:20;;;;;;;6.37;1.20;;;14.50;72.20;;;;;;2348945;53;20977;-76
2022/01/03 07:53:47;;;;;;;6.10;1.10;;;14.50;72.90;;;;;;2360593;53;20956;-76
2022/01/03 07:56:14;;;;;;;6.97;1.10;;;14.50;72.00;;;;;;2603725;52;20989;-76
2022/01/03 07:58:41;;;;;;;5.18;1.08;;;14.50;72.10;;;;;;2410250;52;21577;-76
2022/01/03 08:01:07;;;;;;;5.72;1.02;;;14.50;72.10;;;;;;2346872;53;20945;-76
2022/01/03 08:03:34;;;;;;;7.00;1.10;;;14.50;72.00;;;;;;2368140;54;21048;-76
2022/01/03 08:06:08;;;;;;;5.60;1.40;;;14.50;72.00;;;;;;2351423;53;21037;-76
2022/01/03 08:08:37;;;;;;;9.20;1.15;;;14.50;72.10;;;;;;2363000;53;20932;-76
2022/01/03 08:11:26;;;;;;;5.35;0.90;;;14.60;72.10;;;;;;2362872;53;21452;-76
2022/01/03 08:13:53;;;;;;;4.47;1.10;;;14.70;71.30;;;;;;2353522;53;20949;-76
2022/01/03 08:16:20;;;;;;;5.12;1.20;;;14.60;72.00;;;;;;2368522;53;20926;-76
2022/01/03 08:18:46;;;;;;;5.20;1.25;;;14.60;71.70;;;;;;2376227;52;21307;-76
2022/01/03 08:21:14;;;;;;;6.65;1.30;;;14.60;72.00;;;;;;2414576;52;21462;-76
2022/01/03 08:23:40;;;;;;;8.68;1.37;;;14.60;71.70;;;;;;2337580;54;20940;-76
2022/01/03 08:26:06;;;;;;;3.15;0.80;;;14.60;72.10;;;;;;2365995;53;20914;-75
2022/01/03 08:28:36;;;;;;;6.75;1.45;;;14.60;72.00;;;;;;2357479;53;21773;-75
2022/01/03 08:31:03;;;;;;;6.35;1.30;;;14.60;71.70;;;;;;2357815;53;21465;-76
2022/01/03 08:33:29;;;;;;;5.32;1.20;;;14.60;72.00;;;;;;2356869;53;20922;-76
2022/01/03 08:35:57;;;;;;;8.38;1.30;;;14.70;72.00;;;;;;2347765;53;20967;-76
2022/01/03 08:38:25;;;;;;;4.00;0.95;;;14.60;71.90;;;;;;2369424;54;20901;-76
2022/01/03 08:40:51;;;;;;;3.67;0.93;;;14.70;72.00;;;;;;2348045;53;20936;-76
2022/01/03 08:43:18;;;;;;;6.32;1.10;;;14.70;72.20;;;;;;2593110;52;20937;-76
2022/01/03 08:45:44;;;;;;;4.60;1.10;;;14.70;72.20;;;;;;2368694;54;21585;-75
2022/01/03 08:48:10;;;;;;;4.22;1.20;;;14.60;72.00;;;;;;2350320;53;22086;-76
2022/01/03 08:50:36;;;;;;;5.85;1.00;;;14.60;71.70;;;;;;2376762;52;21897;-76
2022/01/03 08:53:04;;;;;;;5.12;1.27;;;14.70;71.90;;;;;;2367240;53;21396;-76
2022/01/03 08:55:31;;;;;;;5.93;1.23;;;14.70;72.00;;;;;;2368778;53;21431;-76
2022/01/03 08:57:57;;;;;;;6.30;1.87;;;14.70;72.20;;;;;;2349848;52;21402;-76
2022/01/03 09:00:26;;;;;;;5.03;1.00;;;14.70;72.40;;;;;;2359831;53;21131;-76
2022/01/03 09:02:52;;;;;;;4.68;1.23;;;14.70;72.40;;;;;;2358127;53;21469;-76
2022/01/03 09:05:18;;;;;;;6.50;1.50;;;14.70;72.20;;;;;;2496220;52;21005;-76
2022/01/03 09:07:45;;;;;;;6.82;1.35;;;14.70;72.00;;;;;;2349550;53;20968;-76
2022/01/03 09:10:11;;;;;;;6.65;1.37;;;14.70;72.00;;;;;;2350292;53;21877;-76
2022/01/03 09:12:39;;;;;;;6.60;1.45;;;14.80;72.20;;;;;;2355785;53;21862;-76
2022/01/03 09:15:06;;;;;;;4.65;1.50;;;14.80;72.00;;;;;;2402147;53;21347;-76
2022/01/03 09:17:32;;;;;;;7.15;1.65;;;14.80;72.20;;;;;;2358799;53;21976;-75
2022/01/03 09:19:59;;;;;;;3.67;1.00;;;14.80;72.30;;;;;;2353474;53;21001;-76
2022/01/03 09:22:34;;;;;;;5.00;1.48;;;14.80;72.30;;;;;;2369855;54;20942;-76
2022/01/03 09:28:59;;;;;;;8.98;2.33;;;14.80;71.40;;;;;;2360217;53;20943;-75
2022/01/03 09:31:32;;;;;;;8.50;1.62;;;14.80;71.50;;;;;;2344515;53;20990;-76
2022/01/03 09:34:00;;;;;;;7.00;1.55;;;14.90;71.00;;;;;;2445424;52;20990;-75
2022/01/03 09:36:27;;;;;;;4.78;1.40;;;14.90;71.40;;;;;;2346787;53;20957;-76
2022/01/03 09:38:54;;;;;;;5.82;1.20;;;14.90;71.70;;;;;;2460741;52;21019;-76
2022/01/03 09:41:23;;;;;;;5.78;1.55;;;14.90;72.00;;;;;;2447528;53;20988;-76
2022/01/03 09:43:56;;;;;;;4.70;1.12;;;14.90;71.60;;;;;;2368509;53;20942;-76
2022/01/03 09:47:22;;;;;;;7.97;1.52;;;14.90;71.70;;;;;;2325672;53;21069;-76
2022/01/03 09:49:50;;;;;;;3.90;1.40;;;15.00;71.40;;;;;;2312230;54;20923;-76
2022/01/03 09:52:19;;;;;;;5.80;1.37;;;15.00;71.80;;;;;;2309117;55;20967;-76
2022/01/03 09:54:46;;;;;;;8.23;1.92;;;15.00;71.90;;;;;;2309327;55;20971;-76
2022/01/03 09:57:14;;;;;;;7.45;1.77;;;15.00;71.30;;;;;;2412234;53;21007;-76
2022/01/03 09:59:43;;;;;;;7.35;1.87;;;15.00;71.50;;;;;;2338375;53;20979;-76
2022/01/03 10:02:09;;;;;;;6.62;1.80;;;15.00;71.50;;;;;;2299044;54;20963;-75
2022/01/03 10:04:36;;;;;;;5.80;1.65;;;15.00;71.80;;;;;;2308893;54;20970;-76
2022/01/03 10:07:02;;;;;;;4.43;1.50;;;15.00;71.80;;;;;;2333186;54;21508;-76
2022/01/03 10:09:29;;;;;;;4.82;1.27;;;15.10;72.20;;;;;;2527496;52;20952;-75
2022/01/03 10:11:58;;;;;;;8.82;1.30;;;15.10;71.70;;;;;;2356999;53;20937;-76
2022/01/03 10:14:24;;;;;;;6.07;1.58;;;15.10;71.70;;;;;;2331162;54;20983;-76
2022/01/03 10:16:50;;;;;;;4.87;1.27;;;15.10;71.90;;;;;;2336919;53;20990;-75
2022/01/03 10:19:23;;;;;;;5.68;1.73;;;15.10;72.00;;;;;;2326848;54;21052;-75
2022/01/03 10:21:50;;;;;;;6.05;1.58;;;15.20;71.80;;;;;;2343202;53;20952;-76
2022/01/03 10:24:19;;;;;;;5.87;1.65;;;15.20;71.70;;;;;;2433454;52;20983;-76
2022/01/03 10:26:52;;;;;;;7.60;1.87;;;15.20;71.90;;;;;;2364973;54;21492;-76
2022/01/03 10:29:26;;;;;;;5.15;1.40;;;15.20;71.10;;;;;;2365160;54;21443;-76
2022/01/03 10:31:54;;;;;;;5.22;1.58;;;15.20;71.40;;;;;;2400226;52;20931;-76
2022/01/03 10:34:23;;;;;;;4.30;1.15;;;15.30;71.80;;;;;;2453420;52;20968;-75
2022/01/03 10:36:49;;;;;;;6.82;1.95;;;15.30;71.60;;;;;;2357784;53;20964;-75
2022/01/03 10:39:21;;;;;;;3.62;1.23;;;15.30;72.10;;;;;;2350438;53;20930;-76
2022/01/03 10:41:49;;;;;;;7.62;1.90;;;15.40;71.70;;;;;;2365492;54;20971;-76
2022/01/03 10:44:36;;;;;;;5.43;1.73;;;15.40;72.00;;;;;;2365358;54;21515;-75
2022/01/03 10:47:04;;;;;;;8.30;1.60;;;15.40;70.80;;;;;;2345274;54;20988;-76
2022/01/03 10:49:31;;;;;;;7.82;1.40;;;15.40;71.70;;;;;;2340289;53;20944;-76
2022/01/03 10:53:51;;;;;;;3.72;1.10;;;15.40;71.60;;;;;;2496618;53;20939;-75
2022/01/03 10:56:38;;;;;;;7.82;1.30;;;15.50;69.80;;;;;;2364434;53;21027;-76
2022/01/03 10:59:18;;;;;;;6.00;1.35;;;15.50;70.60;;;;;;2345543;54;20983;-76
2022/01/03 11:01:50;;;;;;;3.90;1.33;;;15.50;71.20;;;;;;2393253;52;21882;-75
2022/01/03 11:04:45;;;;;;;5.68;1.37;;;15.60;72.20;;;;;;2365786;54;20948;-76
2022/01/03 11:11:48;;;;;;;4.43;1.60;;;15.60;70.80;;;;;;2364133;53;21425;-75
2022/01/03 11:14:31;;;;;;;3.85;1.30;;;15.60;71.60;;;;;;2348975;53;21693;-76
2022/01/03 11:16:57;;;;;;;6.80;1.60;;;15.60;71.40;;;;;;2367049;52;21501;-75
2022/01/03 11:19:38;;;;;;;6.28;1.33;;;15.70;72.20;;;;;;2345261;53;21490;-76
2022/01/03 11:22:06;;;;;;;8.25;1.60;;;15.70;71.20;;;;;;2404316;53;21294;-76
2022/01/03 11:24:32;;;;;;;5.97;1.30;;;15.70;71.70;;;;;;2359634;53;21507;-76
2022/01/03 11:27:00;;;;;;;8.13;1.70;;;15.70;71.90;;;;;;2369452;52;20908;-76
2022/01/03 11:29:29;;;;;;;4.82;1.25;;;15.80;72.00;;;;;;2343644;53;21503;-76
2022/01/03 11:31:56;;;;;;;8.88;1.65;;;15.80;71.90;;;;;;2365214;53;20916;-75
2022/01/03 11:34:26;;;;;;;5.35;1.40;;;15.80;71.80;;;;;;2361045;54;20948;-76
2022/01/03 11:36:59;;;;;;;4.03;1.20;;;15.90;72.30;;;;;;2505484;52;20967;-75
2022/01/03 11:39:26;;;;;;;3.35;1.33;;;15.90;72.40;;;;;;2342401;53;21044;-75
2022/01/03 11:41:53;;;;;;;5.53;1.20;;;15.90;71.90;;;;;;2352391;53;20952;-76
2022/01/03 11:44:19;;;;;;;4.95;1.40;;;16.00;72.20;;;;;;2350555;53;20956;-76
2022/01/03 11:46:46;;;;;;;4.72;1.60;;;16.00;71.90;;;;;;2365272;54;20995;-76
2022/01/03 11:49:13;;;;;;;5.07;1.30;;;16.00;71.90;;;;;;2365977;53;20992;-76
2022/01/03 11:51:40;;;;;;;5.22;1.48;;;16.00;71.70;;;;;;2341799;53;20943;-76
2022/01/03 11:54:07;;;;;;;5.68;1.45;;;16.00;71.80;;;;;;2365608;54;21059;-76
2022/01/03 11:56:39;;;;;;;7.55;1.50;;;16.00;71.60;;;;;;2590775;52;20943;-75
2022/01/03 12:03:36;;;;;;;5.53;1.33;;;16.10;71.50;;;;;;2332280;53;21522;-76
2022/01/03 12:06:04;;;;;;;5.00;1.17;;;16.00;70.60;;;;;;2365418;54;20971;-76
2022/01/03 12:08:33;;;;;;;6.30;1.45;;;16.10;71.70;;;;;;2352217;52;20948;-76
2022/01/03 12:11:27;;;;;;;4.72;1.17;;;16.10;71.40;;;;;;2363988;53;21046;-75
2022/01/03 12:13:58;;;;;;;6.47;1.50;;;16.10;69.80;;;;;;2422077;52;21475;-76
2022/01/03 12:18:29;;;;;;;7.37;1.20;;;16.10;70.60;;;;;;2444394;52;21023;-76
2022/01/03 12:20:56;;;;;;;3.05;1.10;;;16.00;69.00;;;;;;2365615;54;20940;-76
2022/01/03 12:23:39;;;;;;;4.32;1.20;;;16.00;70.20;;;;;;2366567;54;20931;-76
2022/01/03 12:26:23;;;;;;;3.10;1.33;;;16.00;69.10;;;;;;2346880;53;20988;-76
2022/01/03 12:29:08;;;;;;;4.55;1.25;;;16.00;70.10;;;;;;2536101;52;20964;-75
2022/01/03 12:32:11;;;;;;;3.92;1.40;;;16.00;69.90;;;;;;2359109;53;20983;-76
2022/01/03 12:34:39;;;;;;;8.13;1.42;;;16.00;70.00;;;;;;2364792;54;20943;-76
2022/01/03 12:37:21;;;;;;;7.20;1.55;;;16.00;71.20;;;;;;2403726;52;21000;-75
2022/01/03 12:43:19;;;;;;;;;;;16.00;69.40;;;;;;2368624;54;20932;-75
2022/01/03 12:45:50;;;;;;;6.50;1.35;;;16.10;70.00;;;;;;2343171;53;20126;-75
2022/01/03 12:48:18;;;;;;;3.80;1.37;;;16.10;70.80;;;;;;2340507;53;20977;-76
2022/01/03 12:51:45;;;;;;;8.15;1.50;;;16.10;71.40;;;;;;2341990;54;20919;-76
2022/01/03 12:54:11;;;;;;;4.82;1.40;;;16.10;69.70;;;;;;2443854;53;21789;-76
2022/01/03 12:56:38;;;;;;;6.40;1.83;;;16.10;71.80;;;;;;2501575;52;20998;-75
2022/01/03 12:59:11;;;;;;;5.87;1.70;;;16.20;71.70;;;;;;2339999;54;21020;-75
2022/01/03 13:01:38;;;;;;;9.55;2.37;;;16.20;70.70;;;;;;2327177;54;22377;-74
2022/01/03 13:04:25;;;;;;;4.90;1.60;;;16.20;71.60;;;;;;2341424;54;21012;-76
2022/01/03 13:06:59;;;;;;;4.85;1.77;;;16.20;70.40;;;;;;2355484;53;21019;-76
2022/01/03 13:09:28;;;;;;;6.18;1.55;;;16.30;71.40;;;;;;2356933;53;21012;-76
2022/01/03 13:11:59;;;;;;;3.00;1.30;;;16.30;71.90;;;;;;2352116;53;20989;-76
2022/01/03 13:14:27;;;;;;;5.78;1.37;;;16.30;71.80;;;;;;2574296;52;21624;-76
2022/01/03 13:16:58;;;;;;;5.70;1.50;;;16.40;71.30;;;;;;2347586;53;21372;-76
2022/01/03 13:19:29;;;;;;;6.65;1.20;;;16.40;71.10;;;;;;2371126;53;21200;-76
2022/01/03 13:22:01;;;;;;;8.05;1.52;;;16.40;71.10;;;;;;2448191;52;21032;-75
2022/01/03 13:24:32;;;;;;;4.18;1.23;;;16.50;71.00;;;;;;2360763;53;21541;-76
2022/01/03 13:27:06;;;;;;;4.27;1.10;;;16.60;70.70;;;;;;2348883;53;20908;-76
2022/01/03 13:30:07;;;;;;;5.37;1.42;;;16.60;70.70;;;;;;2354995;53;21243;-76
2022/01/03 13:32:34;;;;;;;4.05;0.82;;;16.60;69.80;;;;;;2370415;54;20906;-76
2022/01/03 13:35:02;;;;;;;5.62;1.10;;;16.70;72.10;;;;;;2462930;52;20930;-76
2022/01/03 13:37:28;;;;;;;4.32;1.12;;;16.80;72.00;;;;;;2363698;54;20935;-76